Time;durP1;ratioP1;P1;durP2;ratioP2;P2;SDS_P1;SDS_P2;PMS_P1;PMS_P2;Temp;Humidity;BMP_temperature;BMP_pressure;BME280_temperature;BME280_humidity;BME280_pressure;Samples;Min_cycle;Max_cycle;Signal;HPM_P1;HPM_P2
2022/05/02 00:01:25;;;;;;;2.10;1.05;;;8.20;99.90;;;;;;5096568;28;20024;-83
2022/05/02 00:03:51;;;;;;;1.50;1.00;;;8.20;99.90;;;;;;5096502;28;20480;-83
2022/05/02 00:06:16;;;;;;;1.90;1.08;;;8.20;99.90;;;;;;5098348;28;20020;-83
2022/05/02 00:08:42;;;;;;;1.48;0.90;;;8.30;99.90;;;;;;5116841;28;20024;-83
2022/05/02 00:11:08;;;;;;;1.30;0.80;;;8.30;99.90;;;;;;5116740;28;20104;-82
2022/05/02 00:13:34;;;;;;;1.95;1.00;;;8.30;99.90;;;;;;5099166;28;20027;-83
2022/05/02 00:16:00;;;;;;;2.30;1.00;;;8.40;99.90;;;;;;5092166;28;20024;-83
2022/05/02 00:18:27;;;;;;;0.95;0.70;;;8.40;99.90;;;;;;5104547;28;20089;-83
2022/05/02 00:20:53;;;;;;;2.08;0.90;;;8.40;99.90;;;;;;5101825;28;20115;-83
2022/05/02 00:23:18;;;;;;;1.80;1.08;;;8.40;99.90;;;;;;5098985;28;20522;-83
2022/05/02 00:25:44;;;;;;;2.00;0.90;;;8.40;99.90;;;;;;5098024;28;20111;-83
2022/05/02 00:28:14;;;;;;;2.65;1.02;;;8.40;99.90;;;;;;5084493;28;20019;-83
2022/05/02 00:30:40;;;;;;;2.45;1.00;;;8.50;99.90;;;;;;5098994;28;20019;-83
2022/05/02 00:33:06;;;;;;;3.00;1.15;;;8.50;99.90;;;;;;5097876;28;20386;-83
2022/05/02 00:35:32;;;;;;;2.42;1.10;;;8.40;99.90;;;;;;5116547;28;20027;-83
2022/05/02 00:37:58;;;;;;;1.83;1.10;;;8.40;99.90;;;;;;5098441;28;20497;-83
2022/05/02 00:40:24;;;;;;;2.30;0.88;;;8.40;99.90;;;;;;5098429;28;20030;-83
2022/05/02 00:42:50;;;;;;;2.10;0.93;;;8.40;99.90;;;;;;5097564;28;20035;-83
2022/05/02 00:45:17;;;;;;;2.80;1.00;;;8.40;99.90;;;;;;5115756;28;20015;-83
2022/05/02 00:47:55;;;;;;;1.60;1.00;;;8.40;99.90;;;;;;5116293;28;20019;-83
2022/05/02 00:50:38;;;;;;;1.63;1.27;;;8.30;99.90;;;;;;5094546;28;20081;-83
2022/05/02 00:53:07;;;;;;;1.88;1.10;;;8.30;99.90;;;;;;5111096;28;20024;-83
2022/05/02 00:55:33;;;;;;;1.70;0.85;;;8.20;99.90;;;;;;5114971;28;20024;-82
2022/05/02 00:58:00;;;;;;;1.42;0.85;;;8.20;99.90;;;;;;5108765;28;20123;-83
2022/05/02 01:00:30;;;;;;;2.25;1.00;;;8.10;99.90;;;;;;5116198;28;20069;-83
2022/05/02 01:02:56;;;;;;;2.00;0.90;;;8.20;99.90;;;;;;5098027;28;20059;-83
2022/05/02 01:05:22;;;;;;;1.85;1.00;;;8.10;99.90;;;;;;5097556;28;20024;-83
2022/05/02 01:07:48;;;;;;;2.05;1.10;;;8.10;99.90;;;;;;5098847;28;20028;-83
2022/05/02 01:10:17;;;;;;;1.27;0.90;;;8.10;99.90;;;;;;5097958;28;20067;-83
2022/05/02 01:12:44;;;;;;;1.58;0.93;;;8.00;99.90;;;;;;5097568;28;20023;-83
2022/05/02 01:15:10;;;;;;;1.58;0.93;;;8.00;99.90;;;;;;5098412;28;20046;-83
2022/05/02 01:17:37;;;;;;;1.10;0.77;;;8.00;99.90;;;;;;5098154;28;20427;-83
2022/05/02 01:20:14;;;;;;;2.08;0.90;;;8.00;99.90;;;;;;5098707;28;20490;-83
2022/05/02 01:22:40;;;;;;;1.73;0.90;;;8.00;99.90;;;;;;5110490;27;20024;-83
2022/05/02 01:25:06;;;;;;;1.23;0.80;;;8.00;99.90;;;;;;5136605;27;20038;-83
2022/05/02 01:27:31;;;;;;;2.00;0.90;;;8.00;99.90;;;;;;5117446;27;20027;-83
2022/05/02 01:29:57;;;;;;;1.42;1.00;;;7.90;99.90;;;;;;5118165;27;20113;-82
2022/05/02 01:32:23;;;;;;;1.40;0.90;;;7.80;99.90;;;;;;5137484;27;20022;-83
2022/05/02 01:34:49;;;;;;;1.48;0.93;;;7.80;99.90;;;;;;5138404;27;20019;-82
2022/05/02 01:37:14;;;;;;;1.65;1.00;;;7.70;99.90;;;;;;5122977;27;20035;-83
2022/05/02 01:39:41;;;;;;;2.85;0.70;;;7.70;99.90;;;;;;5093497;28;20492;-83
2022/05/02 01:42:09;;;;;;;1.95;1.20;;;7.70;99.90;;;;;;5104118;28;20027;-83
2022/05/02 01:44:36;;;;;;;2.00;0.98;;;7.70;99.90;;;;;;5098616;28;20035;-83
2022/05/02 01:47:02;;;;;;;3.53;2.10;;;7.80;99.90;;;;;;5098237;28;20488;-82
2022/05/02 01:49:28;;;;;;;5.70;3.55;;;7.80;99.90;;;;;;5116204;28;20497;-82
2022/05/02 01:51:54;;;;;;;4.45;2.80;;;7.80;99.90;;;;;;5098024;28;20030;-82
2022/05/02 01:54:20;;;;;;;2.60;1.75;;;7.70;99.90;;;;;;5116106;28;20023;-82
2022/05/02 01:56:46;;;;;;;2.22;1.38;;;7.70;99.90;;;;;;5114069;28;20033;-82
2022/05/02 01:59:12;;;;;;;3.67;1.20;;;7.60;99.90;;;;;;5097202;28;20110;-82
2022/05/02 02:01:37;;;;;;;2.25;1.17;;;7.60;99.90;;;;;;5097509;28;20035;-82
2022/05/02 02:06:50;;;;;;;2.10;1.10;;;7.50;99.90;;;;;;5115830;28;20383;-82
2022/05/02 02:09:16;;;;;;;2.00;1.17;;;7.40;99.90;;;;;;5097469;28;20023;-82
2022/05/02 02:11:41;;;;;;;3.00;2.05;;;7.40;99.90;;;;;;5115460;28;20098;-82
2022/05/02 02:14:07;;;;;;;3.97;2.92;;;7.40;99.90;;;;;;5114834;28;20023;-82
2022/05/02 02:16:33;;;;;;;7.20;5.35;;;7.30;99.90;;;;;;5115107;28;20027;-82
2022/05/02 02:18:59;;;;;;;6.07;5.43;;;7.30;99.90;;;;;;5115199;28;20027;-82
2022/05/02 02:21:24;;;;;;;7.72;5.72;;;7.30;99.90;;;;;;5096627;28;20023;-82
2022/05/02 02:23:50;;;;;;;5.10;2.55;;;7.30;99.90;;;;;;5096752;28;20139;-82
2022/05/02 02:26:16;;;;;;;2.60;1.50;;;7.30;99.90;;;;;;5115633;28;20015;-82
2022/05/02 02:28:41;;;;;;;2.92;1.27;;;7.30;99.90;;;;;;5097125;28;20023;-82
2022/05/02 02:31:07;;;;;;;2.33;1.30;;;7.30;99.90;;;;;;5115904;28;20110;-82
2022/05/02 02:33:33;;;;;;;2.05;1.20;;;7.30;99.90;;;;;;5097275;28;20393;-82
2022/05/02 02:35:59;;;;;;;1.77;1.30;;;7.30;99.90;;;;;;5097491;28;20467;-82
2022/05/02 02:38:25;;;;;;;1.90;1.00;;;7.30;99.90;;;;;;5115202;28;20027;-82
2022/05/02 02:40:51;;;;;;;3.03;1.13;;;7.40;99.90;;;;;;5097252;28;20028;-82
2022/05/02 02:43:17;;;;;;;2.33;1.30;;;7.30;99.90;;;;;;5096712;28;20023;-82
2022/05/02 02:45:43;;;;;;;3.00;1.35;;;7.40;99.90;;;;;;5115647;28;20012;-82
2022/05/02 02:48:09;;;;;;;1.73;1.10;;;7.40;99.90;;;;;;5096893;28;20091;-82
2022/05/02 02:50:34;;;;;;;2.22;1.15;;;7.30;99.90;;;;;;5115903;28;20020;-82
2022/05/02 02:53:00;;;;;;;1.67;1.10;;;7.30;99.90;;;;;;5100020;28;20057;-82
2022/05/02 02:55:26;;;;;;;1.90;1.30;;;7.30;99.90;;;;;;5100871;28;20069;-82
2022/05/02 02:57:52;;;;;;;1.70;1.13;;;7.30;99.90;;;;;;5118932;28;20023;-82
2022/05/02 03:00:18;;;;;;;1.77;1.10;;;7.30;99.90;;;;;;5119097;28;20023;-82
2022/05/02 03:02:44;;;;;;;1.70;1.10;;;7.30;99.90;;;;;;5100646;28;20024;-83
2022/05/02 03:08:09;;;;;;;2.05;1.00;;;7.40;99.90;;;;;;5083914;28;20229;-83
2022/05/02 03:10:35;;;;;;;2.00;1.00;;;7.40;99.90;;;;;;5118829;28;20047;-83
2022/05/02 03:13:01;;;;;;;1.60;1.10;;;7.50;99.90;;;;;;5118792;28;20035;-83
2022/05/02 03:15:26;;;;;;;1.67;1.05;;;7.50;99.90;;;;;;5099027;28;20016;-82
2022/05/02 03:17:52;;;;;;;2.28;1.10;;;7.50;99.90;;;;;;5118172;28;20077;-82
2022/05/02 03:20:18;;;;;;;2.20;1.13;;;7.50;99.90;;;;;;5100246;28;20024;-82
2022/05/02 03:22:43;;;;;;;2.38;1.60;;;7.50;99.90;;;;;;5118000;28;20391;-82
2022/05/02 03:25:09;;;;;;;3.83;2.30;;;7.60;99.90;;;;;;5099541;28;20031;-82
2022/05/02 03:27:35;;;;;;;4.20;2.80;;;7.60;99.90;;;;;;5099442;28;20031;-82
2022/05/02 03:30:00;;;;;;;4.03;2.60;;;7.60;99.90;;;;;;5117381;28;20019;-82
2022/05/02 03:32:26;;;;;;;4.07;2.17;;;7.60;99.90;;;;;;5099665;28;20118;-82
2022/05/02 03:34:52;;;;;;;3.42;2.10;;;7.60;99.90;;;;;;5099198;28;20031;-82
2022/05/02 03:37:17;;;;;;;2.17;1.42;;;7.60;99.90;;;;;;5098646;28;20235;-82
2022/05/02 03:39:43;;;;;;;2.80;1.40;;;7.60;99.90;;;;;;5099641;28;20579;-82
2022/05/02 03:42:09;;;;;;;2.42;1.50;;;7.60;99.90;;;;;;5098420;28;20035;-82
2022/05/02 03:44:34;;;;;;;2.80;1.50;;;7.60;99.90;;;;;;5112491;28;20069;-82
2022/05/02 03:47:00;;;;;;;1.60;1.10;;;7.60;99.90;;;;;;5114292;28;20036;-82
2022/05/02 03:49:26;;;;;;;3.65;1.45;;;7.60;99.90;;;;;;5116513;28;20020;-83
2022/05/02 03:51:51;;;;;;;1.80;1.13;;;7.60;99.90;;;;;;5098208;28;20543;-83
2022/05/02 03:54:17;;;;;;;1.92;1.13;;;7.60;99.90;;;;;;5116230;28;20120;-82
2022/05/02 03:56:43;;;;;;;2.88;1.40;;;7.60;99.90;;;;;;5118658;28;20031;-83
2022/05/02 03:59:09;;;;;;;3.70;2.20;;;7.60;99.90;;;;;;5117671;28;20387;-83
2022/05/02 04:01:40;;;;;;;4.90;2.95;;;7.50;99.90;;;;;;5115631;28;20076;-82
2022/05/02 04:04:06;;;;;;;5.60;4.40;;;7.60;99.90;;;;;;5115746;28;20107;-82
2022/05/02 04:06:31;;;;;;;5.32;3.78;;;7.60;99.90;;;;;;5116525;28;20027;-82
2022/05/02 04:08:57;;;;;;;4.03;3.22;;;7.60;99.90;;;;;;5098326;28;20026;-83
2022/05/02 04:11:23;;;;;;;3.50;2.10;;;7.60;99.90;;;;;;5116424;28;20024;-82
2022/05/02 04:13:49;;;;;;;3.33;1.73;;;7.60;99.90;;;;;;5094792;28;20097;-82
2022/05/02 04:16:15;;;;;;;2.20;1.60;;;7.60;99.90;;;;;;5097923;28;20022;-83
2022/05/02 04:18:41;;;;;;;4.10;1.40;;;7.60;99.90;;;;;;5098455;28;20028;-82
2022/05/02 04:21:07;;;;;;;3.85;1.55;;;7.50;99.90;;;;;;5115178;28;20027;-83
2022/05/02 04:23:33;;;;;;;3.88;1.70;;;7.50;99.90;;;;;;5116077;28;20388;-83
2022/05/02 04:25:59;;;;;;;2.47;1.60;;;7.50;99.90;;;;;;5098229;28;20391;-83
2022/05/02 04:28:24;;;;;;;2.72;1.48;;;7.40;99.90;;;;;;5108598;28;20078;-80
2022/05/02 04:30:50;;;;;;;2.53;1.60;;;7.40;99.90;;;;;;5088070;28;20035;-80
2022/05/02 04:33:16;;;;;;;1.83;1.40;;;7.40;99.90;;;;;;5115896;28;20028;-80
2022/05/02 04:35:41;;;;;;;3.08;1.42;;;7.40;99.90;;;;;;5111488;28;20030;-80
2022/05/02 04:38:07;;;;;;;3.20;1.50;;;7.40;99.90;;;;;;5115761;28;20027;-80
2022/05/02 04:40:33;;;;;;;3.00;1.55;;;7.50;99.90;;;;;;5132648;27;20031;-80
2022/05/02 04:42:58;;;;;;;11.05;8.02;;;7.50;99.90;;;;;;5130739;27;20035;-80
2022/05/02 04:45:24;;;;;;;12.20;9.20;;;7.50;99.90;;;;;;5096690;28;20028;-80
2022/05/02 04:47:50;;;;;;;12.15;9.35;;;7.50;99.90;;;;;;5113567;28;20023;-80
2022/05/02 04:50:16;;;;;;;11.73;6.90;;;7.50;99.90;;;;;;5097609;28;20472;-80
2022/05/02 04:52:41;;;;;;;7.43;5.70;;;7.50;99.90;;;;;;5097411;28;20024;-80
2022/05/02 04:55:08;;;;;;;5.25;3.90;;;7.50;99.90;;;;;;5097327;28;20433;-80
2022/05/02 04:57:33;;;;;;;5.60;3.40;;;7.60;99.90;;;;;;5096697;28;20027;-80
2022/05/02 04:59:59;;;;;;;5.57;2.90;;;7.60;99.90;;;;;;5097358;28;20125;-80
2022/05/02 05:02:25;;;;;;;4.25;2.70;;;7.60;99.90;;;;;;5115695;28;20502;-80
2022/05/02 05:04:51;;;;;;;5.95;2.45;;;7.70;99.90;;;;;;5097657;28;20023;-80
2022/05/02 05:07:16;;;;;;;8.27;2.90;;;7.70;99.90;;;;;;5115964;28;20023;-80
2022/05/02 05:09:42;;;;;;;3.97;2.67;;;7.70;99.90;;;;;;5115782;28;20024;-80
2022/05/02 05:12:26;;;;;;;8.20;4.53;;;7.70;99.90;;;;;;5097282;28;20494;-80
2022/05/02 05:17:54;;;;;;;8.90;4.15;;;7.80;99.90;;;;;;5114577;28;20038;-80
2022/05/02 05:20:43;;;;;;;5.15;3.47;;;7.80;99.90;;;;;;5115020;28;20051;-80
2022/05/02 05:23:28;;;;;;;4.78;3.00;;;7.80;99.90;;;;;;5114929;28;20548;-80
2022/05/02 05:26:07;;;;;;;5.20;3.40;;;7.80;99.90;;;;;;5125167;27;20025;-80
2022/05/02 05:28:51;;;;;;;4.18;2.67;;;7.70;99.90;;;;;;5118138;27;20103;-80
2022/05/02 05:31:30;;;;;;;6.05;2.92;;;7.70;99.90;;;;;;5096503;28;20107;-80
2022/05/02 05:34:04;;;;;;;4.75;2.50;;;7.70;99.90;;;;;;5096520;28;20027;-80
2022/05/02 05:36:32;;;;;;;6.05;3.00;;;7.70;99.90;;;;;;5114943;28;20044;-80
2022/05/02 05:39:06;;;;;;;4.45;3.08;;;7.70;99.90;;;;;;5114721;28;20031;-80
2022/05/02 05:41:56;;;;;;;4.90;3.35;;;7.70;99.90;;;;;;5115391;28;20031;-80
2022/05/02 05:44:52;;;;;;;5.50;3.45;;;7.80;99.90;;;;;;5114690;28;20027;-80
2022/05/02 05:47:31;;;;;;;5.70;3.75;;;7.80;99.90;;;;;;5114775;28;20055;-80
2022/05/02 05:50:26;;;;;;;3.75;2.60;;;7.80;99.90;;;;;;5120168;27;20015;-80
2022/05/02 05:53:04;;;;;;;5.07;3.08;;;7.80;99.90;;;;;;5135217;27;20023;-80
2022/05/02 05:56:00;;;;;;;4.35;2.97;;;7.90;99.90;;;;;;5134791;27;20011;-80
2022/05/02 05:58:55;;;;;;;5.30;3.75;;;7.90;99.90;;;;;;5125340;27;20039;-81
2022/05/02 06:01:50;;;;;;;5.95;3.67;;;7.90;99.90;;;;;;5105420;28;20012;-81
2022/05/02 06:04:17;;;;;;;5.22;3.40;;;8.00;99.90;;;;;;5095275;28;20071;-81
2022/05/02 06:06:45;;;;;;;5.63;3.65;;;7.90;99.90;;;;;;5113950;28;20022;-81
2022/05/02 06:09:12;;;;;;;4.95;3.13;;;7.90;99.90;;;;;;5114215;28;20475;-81
2022/05/02 06:11:40;;;;;;;7.13;3.70;;;7.90;99.90;;;;;;5113979;28;20560;-81
2022/05/02 06:14:06;;;;;;;4.93;3.53;;;8.00;99.90;;;;;;5114159;28;20027;-81
2022/05/02 06:19:25;;;;;;;6.15;4.28;;;8.00;99.90;;;;;;5114646;28;20510;-81
2022/05/02 06:21:53;;;;;;;5.85;4.32;;;8.00;99.90;;;;;;5113926;28;20034;-80
2022/05/02 06:24:19;;;;;;;5.63;3.90;;;8.10;99.90;;;;;;5095669;28;20118;-81
2022/05/02 06:26:49;;;;;;;5.85;4.32;;;8.10;99.90;;;;;;5113305;28;20020;-81
2022/05/02 06:29:18;;;;;;;5.60;4.03;;;8.10;99.90;;;;;;5095613;28;20069;-80
2022/05/02 06:31:46;;;;;;;5.35;3.92;;;8.20;99.90;;;;;;5085476;28;20030;-81
2022/05/02 06:34:14;;;;;;;5.78;3.90;;;8.20;99.90;;;;;;5113054;28;20076;-81
2022/05/02 06:36:45;;;;;;;5.28;3.80;;;8.30;99.90;;;;;;5111494;28;20036;-81
2022/05/02 06:39:29;;;;;;;6.43;4.20;;;8.30;99.90;;;;;;5113816;28;20472;-80
2022/05/02 06:42:35;;;;;;;5.55;4.07;;;8.40;99.90;;;;;;5122863;28;20409;-80
2022/05/02 06:45:33;;;;;;;5.80;4.03;;;8.40;99.90;;;;;;5110729;28;20407;-81
2022/05/02 06:48:47;;;;;;;6.05;3.60;;;8.40;99.90;;;;;;5109603;28;20483;-81
2022/05/02 06:51:19;;;;;;;5.63;3.65;;;8.50;99.90;;;;;;5096053;28;20042;-81
2022/05/02 06:54:06;;;;;;;6.93;5.03;;;8.50;99.90;;;;;;5113718;28;20045;-81
2022/05/02 06:56:54;;;;;;;7.38;4.70;;;8.50;99.90;;;;;;5095269;28;20153;-81
2022/05/02 06:59:34;;;;;;;5.90;3.90;;;8.60;99.90;;;;;;5095575;28;20028;-81
2022/05/02 07:02:13;;;;;;;6.35;4.35;;;8.60;99.90;;;;;;5095224;28;20064;-81
2022/05/02 07:04:53;;;;;;;5.25;3.90;;;8.70;99.90;;;;;;5113592;28;20023;-81
2022/05/02 07:07:28;;;;;;;5.68;3.78;;;8.70;99.90;;;;;;5114010;28;20023;-81
2022/05/02 07:10:02;;;;;;;7.35;3.80;;;8.80;99.90;;;;;;5095495;28;20046;-81
2022/05/02 07:12:30;;;;;;;6.55;4.18;;;8.90;99.90;;;;;;5100916;28;20026;-81
2022/05/02 07:15:21;;;;;;;5.32;3.72;;;9.00;99.90;;;;;;5128341;28;20479;-81
2022/05/02 07:18:03;;;;;;;7.53;4.90;;;9.00;99.90;;;;;;5113505;28;20502;-81
2022/05/02 07:20:32;;;;;;;6.35;4.45;;;9.10;99.90;;;;;;5095326;28;20164;-81
2022/05/02 07:23:34;;;;;;;5.93;4.13;;;9.10;99.90;;;;;;5095309;28;20020;-81
2022/05/02 07:26:07;;;;;;;7.50;4.88;;;9.20;99.90;;;;;;5120413;28;20048;-81
2022/05/02 07:28:44;;;;;;;7.75;4.88;;;9.20;99.90;;;;;;5115641;28;20494;-81
2022/05/02 07:31:11;;;;;;;7.18;4.50;;;9.20;99.90;;;;;;5114883;28;20107;-81
2022/05/02 07:33:39;;;;;;;6.78;4.70;;;9.30;99.90;;;;;;5095926;28;20027;-81
2022/05/02 07:36:05;;;;;;;5.85;4.38;;;9.30;99.90;;;;;;5113222;28;20094;-82
2022/05/02 07:38:34;;;;;;;7.10;3.70;;;9.40;99.90;;;;;;5093324;28;20058;-82
2022/05/02 07:41:22;;;;;;;5.80;3.97;;;9.40;99.90;;;;;;5096753;27;20055;-82
2022/05/02 07:44:06;;;;;;;4.85;3.55;;;9.50;99.90;;;;;;5117019;27;20730;-81
2022/05/02 07:46:43;;;;;;;5.00;3.60;;;9.60;99.90;;;;;;5111969;27;20023;-81
2022/05/02 07:49:13;;;;;;;3.88;2.90;;;9.60;99.90;;;;;;5135494;27;20030;-81
2022/05/02 07:51:46;;;;;;;4.20;2.70;;;9.70;99.90;;;;;;5096639;28;20130;-81
2022/05/02 07:54:18;;;;;;;4.75;3.38;;;9.80;99.90;;;;;;5121786;27;20475;-81
2022/05/02 07:56:47;;;;;;;4.82;3.13;;;9.80;99.90;;;;;;5107461;27;20139;-81
2022/05/02 07:59:15;;;;;;;5.47;2.80;;;9.90;99.90;;;;;;5107123;27;20363;-81
2022/05/02 08:02:42;;;;;;;5.68;3.33;;;9.90;99.90;;;;;;5115930;27;20024;-81
2022/05/02 08:06:11;;;;;;;4.05;3.25;;;10.00;99.90;;;;;;5074433;28;20061;-81
2022/05/02 08:09:21;;;;;;;4.60;3.22;;;10.10;99.90;;;;;;5099549;28;20039;-81
2022/05/02 08:12:25;;;;;;;4.15;3.10;;;10.20;99.90;;;;;;5040116;28;20031;-81
2022/05/02 08:15:20;;;;;;;5.03;3.38;;;10.30;99.90;;;;;;5095611;28;20479;-81
2022/05/02 08:18:10;;;;;;;4.05;2.95;;;10.40;99.90;;;;;;5106238;28;20046;-81
2022/05/02 08:21:45;;;;;;;4.00;2.95;;;10.60;99.90;;;;;;5095371;28;20032;-81
2022/05/02 08:27:49;;;;;;;4.30;2.80;;;10.80;99.90;;;;;;5115571;28;20026;-81
2022/05/02 08:30:23;;;;;;;3.85;2.75;;;11.00;99.90;;;;;;5115440;28;20061;-81
2022/05/02 08:33:15;;;;;;;7.38;4.78;;;11.00;99.90;;;;;;5116933;28;20032;-81
2022/05/02 08:35:52;;;;;;;;;;;11.20;99.90;;;;;;5098751;28;20020;-81
2022/05/02 08:39:00;;;;;;;3.13;2.30;;;11.40;99.90;;;;;;5116873;28;19903;-82
2022/05/02 08:42:24;;;;;;;3.20;2.05;;;11.50;99.90;;;;;;5116450;28;20110;-81
2022/05/02 08:45:17;;;;;;;2.17;1.30;;;11.70;99.90;;;;;;5097445;28;20389;-82
2022/05/02 08:48:25;;;;;;;2.17;1.40;;;11.90;99.90;;;;;;5095227;28;20035;-81
2022/05/02 08:51:07;;;;;;;3.05;1.80;;;12.10;99.90;;;;;;5094376;28;20028;-81
2022/05/02 08:54:27;;;;;;;2.42;1.83;;;12.20;99.90;;;;;;5098165;28;20023;-81
2022/05/02 08:57:28;;;;;;;2.55;1.83;;;12.30;99.90;;;;;;5097287;28;20031;-81
2022/05/02 09:00:09;;;;;;;2.58;1.50;;;12.30;99.90;;;;;;5025627;28;20120;-81
2022/05/02 09:02:56;;;;;;;2.47;1.75;;;12.40;99.90;;;;;;5097323;28;20031;-81
2022/05/02 09:06:05;;;;;;;2.83;1.70;;;12.50;99.90;;;;;;5117153;28;20027;-81
2022/05/02 09:09:07;;;;;;;2.08;1.50;;;12.70;99.90;;;;;;5118919;28;20020;-81
2022/05/02 09:12:10;;;;;;;4.20;1.83;;;12.90;99.90;;;;;;5100212;28;20016;-81
2022/05/02 09:14:48;;;;;;;2.65;2.30;;;13.20;99.90;;;;;;5116329;28;20456;-81
2022/05/02 09:17:27;;;;;;;3.33;2.20;;;13.30;99.90;;;;;;5096768;28;20027;-81
2022/05/02 09:20:23;;;;;;;5.32;2.20;;;13.30;99.90;;;;;;5099983;28;20407;-81
2022/05/02 09:23:26;;;;;;;3.10;2.00;;;13.30;99.90;;;;;;5097280;28;20045;-81
2022/05/02 09:26:13;;;;;;;3.53;2.00;;;13.30;99.90;;;;;;5096878;28;20038;-81
2022/05/02 09:28:39;;;;;;;2.38;1.70;;;13.30;99.90;;;;;;5096807;28;20031;-81
2022/05/02 09:31:41;;;;;;;2.88;1.65;;;13.40;99.90;;;;;;5114908;28;20024;-81
2022/05/02 09:34:16;;;;;;;2.30;1.60;;;13.40;99.90;;;;;;5096703;28;20114;-81
2022/05/02 09:37:03;;;;;;;2.45;1.45;;;13.50;99.90;;;;;;5096795;28;20020;-81
2022/05/02 09:39:52;;;;;;;2.53;1.80;;;13.60;99.90;;;;;;5115031;28;20034;-81
2022/05/02 09:42:42;;;;;;;3.88;2.03;;;13.70;99.90;;;;;;5115334;28;20087;-81
2022/05/02 09:49:40;;;;;;;3.83;1.83;;;13.80;99.90;;;;;;5120886;28;20034;-81
2022/05/02 09:52:52;;;;;;;3.83;2.38;;;13.80;99.90;;;;;;5038187;28;20030;-81
2022/05/02 09:59:45;;;;;;;2.80;1.60;;;14.10;99.30;;;;;;5115299;28;20451;-81
2022/05/02 10:02:21;;;;;;;2.28;1.52;;;14.20;98.00;;;;;;5085538;28;20551;-81
2022/05/02 10:05:07;;;;;;;2.65;1.40;;;14.20;98.60;;;;;;5116062;28;20505;-82
2022/05/02 10:07:47;;;;;;;7.40;1.55;;;14.30;97.10;;;;;;5100885;28;20138;-81
2022/05/02 10:10:39;;;;;;;2.50;1.70;;;14.30;98.10;;;;;;5104816;28;20089;-82
2022/05/02 10:13:25;;;;;;;2.60;1.45;;;14.40;98.40;;;;;;5105228;28;20115;-81
2022/05/02 10:16:29;;;;;;;3.15;1.58;;;14.50;98.60;;;;;;5104246;28;20023;-81
2022/05/02 10:19:15;;;;;;;2.38;1.70;;;14.70;99.10;;;;;;5098869;28;20020;-81
2022/05/02 10:22:00;;;;;;;2.20;1.60;;;14.80;98.80;;;;;;5114173;28;20103;-81
2022/05/02 10:24:52;;;;;;;2.63;1.60;;;15.00;98.50;;;;;;5115511;28;20023;-81
2022/05/02 10:27:52;;;;;;;3.05;1.65;;;15.00;97.20;;;;;;5097276;28;20016;-81
2022/05/02 10:30:21;;;;;;;1.77;1.20;;;15.10;96.50;;;;;;5120742;28;20515;-82
2022/05/02 10:32:50;;;;;;;2.03;1.33;;;15.10;96.50;;;;;;5107213;28;20023;-82
2022/05/02 10:35:18;;;;;;;2.70;1.10;;;15.20;96.60;;;;;;5126327;28;20051;-82
2022/05/02 10:38:12;;;;;;;3.72;1.38;;;15.30;96.10;;;;;;5123101;28;20024;-81
2022/05/02 10:40:40;;;;;;;1.58;1.15;;;15.30;94.50;;;;;;5104208;28;20036;-81
2022/05/02 10:43:08;;;;;;;2.80;1.50;;;15.20;94.60;;;;;;5129093;28;20044;-81
2022/05/02 10:45:36;;;;;;;1.98;1.25;;;15.20;93.80;;;;;;5107397;28;20020;-81
2022/05/02 10:48:13;;;;;;;2.35;1.92;;;15.10;92.20;;;;;;5124330;28;20015;-81
2022/05/02 10:50:39;;;;;;;2.13;1.33;;;15.10;94.10;;;;;;5124358;28;20047;-80
2022/05/02 10:53:30;;;;;;;1.95;1.30;;;15.10;92.50;;;;;;5107796;28;20020;-81
2022/05/02 10:56:19;;;;;;;2.13;1.40;;;15.10;94.00;;;;;;5129120;28;20075;-81
2022/05/02 10:59:03;;;;;;;2.60;1.33;;;15.00;94.30;;;;;;5109016;28;20047;-81
2022/05/02 11:01:59;;;;;;;3.58;1.50;;;15.10;94.70;;;;;;5100765;28;20038;-81
2022/05/02 11:04:50;;;;;;;1.63;1.10;;;15.30;93.60;;;;;;5107234;28;20080;-81
2022/05/02 11:07:35;;;;;;;1.73;1.07;;;15.40;93.70;;;;;;5125797;28;20016;-81
2022/05/02 11:10:48;;;;;;;2.08;1.30;;;15.60;92.10;;;;;;5108031;28;20024;-81
2022/05/02 11:13:32;;;;;;;1.70;1.10;;;15.60;92.70;;;;;;5126808;28;20039;-81
2022/05/02 11:16:07;;;;;;;2.33;1.50;;;15.70;94.80;;;;;;5111475;28;20030;-81
2022/05/02 11:22:44;;;;;;;3.17;1.20;;;15.70;93.70;;;;;;5130152;28;20031;-81
2022/05/02 11:25:35;;;;;;;2.75;1.10;;;15.90;93.00;;;;;;5088344;28;20039;-80
2022/05/02 11:28:44;;;;;;;1.70;1.10;;;16.00;91.80;;;;;;5102323;28;20032;-80
2022/05/02 11:31:51;;;;;;;2.38;1.05;;;16.00;91.60;;;;;;5084308;28;20277;-80
2022/05/02 11:34:41;;;;;;;1.35;0.90;;;16.00;91.20;;;;;;5033995;28;20025;-80
2022/05/02 11:37:31;;;;;;;2.15;1.10;;;16.10;90.00;;;;;;5021944;28;20093;-80
2022/05/02 11:40:05;;;;;;;1.80;1.00;;;16.10;88.10;;;;;;5104542;28;20059;-80
2022/05/02 11:42:33;;;;;;;1.27;0.88;;;16.00;88.70;;;;;;5118737;28;20447;-80
2022/05/02 11:45:11;;;;;;;1.52;0.90;;;15.80;90.10;;;;;;5118198;28;20037;-80
2022/05/02 11:47:40;;;;;;;2.45;1.17;;;15.80;91.20;;;;;;5119026;28;20024;-80
2022/05/02 11:50:10;;;;;;;1.70;1.02;;;15.80;90.50;;;;;;5103154;27;20126;-80
2022/05/02 11:52:38;;;;;;;1.60;0.97;;;15.80;90.80;;;;;;5086090;28;20027;-80
2022/05/02 11:55:08;;;;;;;1.40;1.00;;;15.80;90.60;;;;;;5121942;28;20034;-80
2022/05/02 11:57:41;;;;;;;2.93;1.30;;;15.80;91.20;;;;;;5122283;28;20023;-80
2022/05/02 12:00:11;;;;;;;1.60;0.90;;;15.80;91.40;;;;;;5121365;28;20540;-80
2022/05/02 12:02:56;;;;;;;1.65;1.05;;;15.70;90.90;;;;;;5120394;28;20035;-80
2022/05/02 12:05:55;;;;;;;1.45;0.93;;;15.80;91.20;;;;;;5102934;28;20027;-80
2022/05/02 12:08:34;;;;;;;1.67;1.10;;;15.90;91.40;;;;;;5067500;28;20115;-80
2022/05/02 12:11:11;;;;;;;2.15;1.27;;;16.10;90.90;;;;;;5100230;28;20476;-80
2022/05/02 12:13:38;;;;;;;1.73;1.08;;;16.20;90.00;;;;;;5117061;28;20042;-80
2022/05/02 12:16:15;;;;;;;2.42;1.33;;;16.30;90.60;;;;;;5100739;28;20027;-80
2022/05/02 12:18:47;;;;;;;2.58;1.48;;;16.50;89.70;;;;;;5100972;28;20039;-80
2022/05/02 12:21:39;;;;;;;1.40;1.00;;;16.60;90.00;;;;;;5101350;28;20425;-80
2022/05/02 12:24:07;;;;;;;2.15;1.10;;;16.70;87.20;;;;;;5119197;28;20048;-80
2022/05/02 12:26:35;;;;;;;1.83;1.02;;;16.70;86.60;;;;;;5099139;28;20020;-81
2022/05/02 12:29:13;;;;;;;1.02;0.73;;;16.70;84.20;;;;;;5100680;28;20023;-80
2022/05/02 12:31:43;;;;;;;1.70;1.13;;;16.60;85.90;;;;;;5099917;28;20024;-81
2022/05/02 12:34:12;;;;;;;2.05;0.93;;;16.50;86.20;;;;;;5098198;28;20028;-80
2022/05/02 12:37:09;;;;;;;1.75;0.77;;;16.50;87.50;;;;;;5117670;28;20016;-80
2022/05/02 12:39:49;;;;;;;1.42;0.90;;;16.50;85.90;;;;;;5099632;28;20044;-80
2022/05/02 12:42:18;;;;;;;1.13;0.70;;;16.50;87.30;;;;;;5103235;27;20498;-80
2022/05/02 12:44:52;;;;;;;1.50;0.70;;;16.60;82.80;;;;;;5097630;28;20039;-80
2022/05/02 12:47:23;;;;;;;3.13;1.10;;;16.70;83.10;;;;;;5115359;28;20032;-81
2022/05/02 12:50:21;;;;;;;2.30;1.00;;;16.70;82.90;;;;;;5097979;28;20429;-81
2022/05/02 12:53:05;;;;;;;1.25;0.80;;;16.60;83.70;;;;;;5115276;28;20024;-80
2022/05/02 12:55:34;;;;;;;1.13;0.70;;;16.60;83.40;;;;;;5098267;28;20028;-80
2022/05/02 13:00:55;;;;;;;1.60;0.90;;;16.50;84.00;;;;;;5115338;28;20141;-86
2022/05/02 13:03:27;;;;;;;1.90;0.80;;;16.90;80.50;;;;;;5097184;28;20097;-79
2022/05/02 13:05:54;;;;;;;1.40;0.80;;;17.30;84.30;;;;;;5115998;28;20020;-79
2022/05/02 13:08:34;;;;;;;1.10;0.70;;;17.60;81.90;;;;;;5098812;28;20076;-81
2022/05/02 13:11:15;;;;;;;1.27;0.88;;;17.90;76.10;;;;;;5118351;28;20040;-82
2022/05/02 13:13:52;;;;;;;2.13;0.80;;;18.10;80.20;;;;;;5096580;28;20479;-80
2022/05/02 13:16:24;;;;;;;1.60;0.90;;;18.30;73.90;;;;;;5099039;28;20031;-81
2022/05/02 13:18:50;;;;;;;3.03;1.08;;;18.50;76.40;;;;;;5098897;28;20024;-80
2022/05/02 13:21:18;;;;;;;1.70;0.90;;;18.60;78.30;;;;;;5098527;28;20388;-80
2022/05/02 13:23:50;;;;;;;1.85;0.90;;;18.50;80.50;;;;;;5098507;28;20027;-80
2022/05/02 13:26:19;;;;;;;2.60;0.95;;;18.50;73.80;;;;;;5117483;28;20019;-80
2022/05/02 13:29:16;;;;;;;1.50;0.80;;;18.70;71.20;;;;;;5098924;28;20035;-81
2022/05/02 13:31:50;;;;;;;1.50;0.88;;;18.60;73.80;;;;;;5116626;28;20466;-80
2022/05/02 13:34:29;;;;;;;2.20;0.98;;;18.60;75.20;;;;;;5098884;28;20024;-80
2022/05/02 13:37:03;;;;;;;3.08;1.00;;;18.60;74.50;;;;;;5098495;28;20027;-80
2022/05/02 13:39:42;;;;;;;2.22;0.90;;;18.60;72.60;;;;;;5117044;28;20091;-80
2022/05/02 13:42:18;;;;;;;1.20;0.70;;;18.50;71.30;;;;;;5097148;28;20031;-80
2022/05/02 13:44:57;;;;;;;1.38;0.95;;;18.50;71.50;;;;;;5116015;28;20022;-80
2022/05/02 13:47:30;;;;;;;1.95;1.00;;;18.50;69.00;;;;;;5096787;28;20073;-80
2022/05/02 13:50:11;;;;;;;1.80;0.90;;;18.40;69.80;;;;;;5113890;27;20027;-80
2022/05/02 13:52:47;;;;;;;2.58;0.80;;;18.40;70.10;;;;;;5103232;28;20410;-80
2022/05/02 13:55:43;;;;;;;1.63;0.90;;;18.30;69.90;;;;;;5115035;28;20024;-80
2022/05/02 13:58:28;;;;;;;1.77;1.00;;;18.30;69.10;;;;;;5108731;28;20031;-80
2022/05/02 14:01:34;;;;;;;1.88;0.90;;;18.30;70.30;;;;;;5115381;28;20034;-80
2022/05/02 14:04:22;;;;;;;1.38;0.88;;;18.20;70.30;;;;;;5097203;28;20519;-80
2022/05/02 14:09:49;;;;;;;2.00;1.00;;;18.20;65.10;;;;;;5115948;28;20030;-80
2022/05/02 14:12:28;;;;;;;2.58;0.93;;;18.20;64.50;;;;;;5094969;28;20030;-81